This is the latest recevied weather packets stored in our database for station/object IU3OVK-13. If no packets are shown the sender has not sent any weather packets the latest 10 day(s).
| Time | Temp. | Humidity | Pressure | Rain* | Wind** | Luminosity | Snow |
|---|---|---|---|---|---|---|---|
| 1777661376 | 15.56° C | 79% | 1018.9 hPa | - | - | - | - |
| 1777660757 | 15.56° C | 78% | 1018.7 hPa | - | - | - | - |
| 1777658275 | 16.67° C | 75% | 1017.8 hPa | - | - | - | - |
| 1777657655 | 17.22° C | 75% | 1017.6 hPa | - | - | - | - |
| 1777657035 | 17.78° C | 73% | 1017.5 hPa | - | - | - | - |
| 1777655794 | 18.33° C | 71% | 1017.2 hPa | - | - | - | - |
| 1777655174 | 18.33° C | 71% | 1017.2 hPa | - | - | - | - |
| 1777653934 | 18.89° C | 71% | 1017.1 hPa | - | - | - | - |
| 1777653314 | 19.44° C | 72% | 1017.1 hPa | - | - | - | - |
| 1777651453 | 19.44° C | 72% | 1016.9 hPa | - | - | - | - |
| 1777649593 | 20° C | 72% | 1016.9 hPa | - | - | - | - |
| 1777648973 | 20.56° C | 72% | 1016.9 hPa | - | - | - | - |
| 1777648353 | 20° C | 72% | 1016.9 hPa | - | - | - | - |
| 1777646492 | 19.44° C | 73% | 1017 hPa | - | - | - | - |
| 1777645872 | 18.89° C | 73% | 1017.2 hPa | - | - | - | - |
| 1777645252 | 19.44° C | 74% | 1017 hPa | - | - | - | - |
| 1777644632 | 20° C | 73% | 1017 hPa | - | - | - | - |
| 1777643391 | 18.89° C | 74% | 1017.6 hPa | - | - | - | - |
| 1777642151 | 18.89° C | 72% | 1017.8 hPa | - | - | - | - |
| 1777641531 | 19.44° C | 73% | 1018 hPa | - | - | - | - |
| 1777640291 | 18.33° C | 74% | 1018.7 hPa | - | - | - | - |
| 1777639670 | 18.33° C | 74% | 1019.3 hPa | - | - | - | - |
| 1777638430 | 18.33° C | 71% | 1019.7 hPa | - | - | - | - |
| 1777637810 | 19.44° C | 72% | 1019.8 hPa | - | - | - | - |
| 1777636570 | 20.56° C | 72% | 1020.1 hPa | - | - | - | - |
* Rain since midnight (hover to see other rain measurements)
** Current wind speed in m/s (hover to see current wind gust speed)